createdAt,value
2022-09-22T00:01:32.183Z,101324.78
2022-09-22T00:04:04.940Z,101323.31
2022-09-22T00:06:36.453Z,101318.84
2022-09-22T00:09:05.703Z,101322.34
2022-09-22T00:11:36.225Z,101317.09
2022-09-22T00:14:07.992Z,101321.13
2022-09-22T00:16:38.967Z,101318.38
2022-09-22T00:19:09.128Z,101325.63
2022-09-22T00:21:37.622Z,101324.34
2022-09-22T00:24:07.868Z,101321.34
2022-09-22T00:26:37.975Z,101319.84
2022-09-22T00:29:07.980Z,101323.59
2022-09-22T00:31:37.122Z,101327.09
2022-09-22T00:34:05.039Z,101326.63
2022-09-22T00:36:35.472Z,101323.63
2022-09-22T00:39:03.877Z,101327.91
2022-09-22T00:41:34.041Z,101337.19
2022-09-22T00:44:33.429Z,101332.97
2022-09-22T00:47:07.307Z,101329.44
2022-09-22T00:49:42.711Z,101328.72
2022-09-22T00:52:14.081Z,101328.47
2022-09-22T00:54:42.244Z,101328.50
2022-09-22T00:57:14.330Z,101322.03
2022-09-22T00:59:45.656Z,101322.03
2022-09-22T01:02:13.909Z,101320.78
2022-09-22T01:04:42.618Z,101318.78
2022-09-22T01:07:13.137Z,101330.03
2022-09-22T01:09:41.032Z,101319.78
2022-09-22T01:12:09.526Z,101312.03
2022-09-22T01:14:50.258Z,101318.28
2022-09-22T01:17:26.041Z,101317.28
2022-09-22T01:20:16.608Z,101309.78
2022-09-22T01:23:18.456Z,101307.78
2022-09-22T01:26:02.949Z,101309.28
2022-09-22T01:29:04.356Z,101304.03
2022-09-22T01:31:39.186Z,101307.03
2022-09-22T01:34:12.918Z,101309.53
2022-09-22T01:36:48.316Z,101292.28
2022-09-22T01:39:23.713Z,101312.00
2022-09-22T01:41:58.215Z,101306.78
2022-09-22T01:44:32.533Z,101298.78
2022-09-22T01:47:07.821Z,101300.00
2022-09-22T01:49:41.372Z,101303.03
2022-09-22T01:52:16.502Z,101300.75
2022-09-22T01:54:47.252Z,101298.75
2022-09-22T01:57:19.487Z,101301.75
2022-09-22T01:59:54.356Z,101297.53
2022-09-22T02:02:28.776Z,101294.50
2022-09-22T02:05:02.082Z,101298.50
2022-09-22T02:07:34.352Z,101294.25
2022-09-22T02:10:08.138Z,101297.25
2022-09-22T02:12:36.744Z,101293.50
2022-09-22T02:15:05.521Z,101290.50
2022-09-22T02:17:35.812Z,101292.50
2022-09-22T02:20:06.689Z,101298.25
2022-09-22T02:22:34.888Z,101293.25
2022-09-22T02:25:02.786Z,101293.00
2022-09-22T02:27:36.650Z,101296.53
2022-09-22T02:30:08.379Z,101292.00
2022-09-22T02:32:40.650Z,101286.00
2022-09-22T02:35:09.947Z,101286.78
2022-09-22T02:37:41.592Z,101286.25
2022-09-22T02:40:21.101Z,101293.50
2022-09-22T02:42:54.778Z,101290.75
2022-09-22T02:45:28.176Z,101291.28
2022-09-22T02:48:00.357Z,101293.25
2022-09-22T02:50:31.214Z,101289.00
2022-09-22T02:53:03.740Z,101291.75
2022-09-22T02:55:31.864Z,101289.25
2022-09-22T02:57:59.694Z,101286.22
2022-09-22T03:00:27.698Z,101291.22
2022-09-22T03:02:56.993Z,101284.97
2022-09-22T03:05:24.966Z,101280.22
2022-09-22T03:07:52.968Z,101289.69
2022-09-22T03:10:20.925Z,101281.66
2022-09-22T03:13:14.459Z,101284.16
2022-09-22T03:15:37.033Z,101282.38
2022-09-22T03:18:06.683Z,101279.88
2022-09-22T03:20:34.785Z,101280.09
2022-09-22T03:23:02.723Z,101278.84
2022-09-22T03:25:30.610Z,101278.34
2022-09-22T03:27:58.525Z,101271.31
2022-09-22T03:30:26.473Z,101280.09
2022-09-22T03:32:54.380Z,101272.38
2022-09-22T03:35:23.734Z,101276.63
2022-09-22T03:37:51.637Z,101272.84
2022-09-22T03:40:19.697Z,101269.38
2022-09-22T03:42:47.642Z,101268.91
2022-09-22T03:45:16.075Z,101272.59
2022-09-22T03:47:44.015Z,101274.34
2022-09-22T03:50:11.945Z,101269.09
2022-09-22T03:52:42.916Z,101270.38
2022-09-22T03:55:11.706Z,101274.34
2022-09-22T03:57:40.411Z,101271.59
2022-09-22T04:00:09.743Z,101274.06
2022-09-22T04:02:40.659Z,101262.34
2022-09-22T04:05:09.836Z,101261.06
2022-09-22T04:07:37.833Z,101265.34
2022-09-22T04:10:08.960Z,101258.59
2022-09-22T04:12:37.259Z,101263.06
2022-09-22T04:15:06.225Z,101256.13
2022-09-22T04:17:34.114Z,101260.63
2022-09-22T04:20:02.630Z,101262.13
2022-09-22T04:22:30.666Z,101259.84
2022-09-22T04:24:58.542Z,101257.31
2022-09-22T04:27:27.848Z,101250.56
2022-09-22T04:29:56.028Z,101253.53
2022-09-22T04:32:24.418Z,101259.53
2022-09-22T04:34:52.304Z,101257.78
2022-09-22T04:37:20.177Z,101256.00
2022-09-22T04:39:48.102Z,101258.22
2022-09-22T04:42:16.065Z,101262.44
2022-09-22T04:44:46.072Z,101259.94
2022-09-22T04:47:14.202Z,101266.66
2022-09-22T04:49:42.085Z,101258.88
2022-09-22T04:52:10.550Z,101259.66
2022-09-22T04:54:38.412Z,101256.38
2022-09-22T04:57:06.573Z,101260.88
2022-09-22T04:59:35.258Z,101260.13
2022-09-22T05:02:04.734Z,101266.34
2022-09-22T05:04:32.816Z,101263.06
2022-09-22T05:07:00.767Z,101267.34
2022-09-22T05:09:29.104Z,101264.63
2022-09-22T05:11:58.726Z,101272.59
2022-09-22T05:14:26.739Z,101270.63
2022-09-22T05:16:54.691Z,101263.41
2022-09-22T05:19:24.130Z,101266.16
2022-09-22T05:21:52.111Z,101270.63
2022-09-22T05:24:20.027Z,101272.41
2022-09-22T05:26:48.098Z,101273.88
2022-09-22T05:29:18.178Z,101274.41
2022-09-22T05:31:46.386Z,101281.91
2022-09-22T05:34:14.372Z,101283.66
2022-09-22T05:36:43.828Z,101283.19
2022-09-22T05:39:11.785Z,101292.44
2022-09-22T05:41:39.862Z,101286.22
2022-09-22T05:44:07.870Z,101294.00
2022-09-22T05:46:35.791Z,101290.50
2022-09-22T05:49:03.939Z,101291.06
2022-09-22T05:51:31.839Z,101286.59
2022-09-22T05:54:01.230Z,101293.88
2022-09-22T05:56:29.199Z,101295.66
2022-09-22T05:58:57.140Z,101287.94
2022-09-22T06:01:25.391Z,101295.19
2022-09-22T06:03:53.633Z,101297.72
2022-09-22T06:06:21.597Z,101299.97
2022-09-22T06:08:50.859Z,101288.53
2022-09-22T06:11:20.374Z,101293.78
2022-09-22T06:13:51.535Z,101293.28
2022-09-22T06:16:19.726Z,101296.53
2022-09-22T06:18:48.092Z,101293.47
2022-09-22T06:21:16.630Z,101292.69
2022-09-22T06:23:44.776Z,101296.38
2022-09-22T06:26:12.746Z,101294.81
2022-09-22T06:28:42.065Z,101290.22
2022-09-22T06:31:10.027Z,101289.03
2022-09-22T06:33:37.960Z,101294.88
2022-09-22T06:36:08.005Z,101282.69
2022-09-22T06:38:35.932Z,101281.47
2022-09-22T06:41:04.212Z,101282.56
2022-09-22T06:43:37.728Z,101288.59
2022-09-22T06:46:11.205Z,101284.38
2022-09-22T06:48:39.176Z,101284.13
2022-09-22T06:51:07.225Z,101286.88
2022-09-22T06:53:35.219Z,101288.09
2022-09-22T06:56:06.005Z,101283.78
2022-09-22T06:58:52.356Z,101281.56
2022-09-22T07:01:24.365Z,101285.84
2022-09-22T07:03:52.749Z,101287.56
2022-09-22T07:06:21.079Z,101276.72
2022-09-22T07:08:50.183Z,101280.47
2022-09-22T07:11:23.552Z,101287.28
2022-09-22T07:13:53.342Z,101284.63
2022-09-22T07:16:22.884Z,101285.47
2022-09-22T07:18:54.288Z,101288.44
2022-09-22T07:21:24.630Z,101285.97
2022-09-22T07:23:55.738Z,101292.47
2022-09-22T07:26:26.434Z,101283.50
2022-09-22T07:28:54.986Z,101285.19
2022-09-22T07:31:28.446Z,101288.34
2022-09-22T07:34:00.201Z,101278.59
2022-09-22T07:36:30.492Z,101283.50
2022-09-22T07:39:04.109Z,101279.13
2022-09-22T07:41:41.271Z,101282.25
2022-09-22T07:44:27.897Z,101286.03
2022-09-22T07:46:56.003Z,101288.44
2022-09-22T07:49:25.365Z,101289.31
2022-09-22T07:51:54.920Z,101285.66
2022-09-22T07:54:23.856Z,101285.72
2022-09-22T07:56:55.245Z,101278.25
2022-09-22T07:59:23.249Z,101286.19
2022-09-22T08:01:53.618Z,101282.75
2022-09-22T08:04:23.958Z,101288.31
2022-09-22T08:06:55.279Z,101282.75
2022-09-22T08:09:23.743Z,101280.03
2022-09-22T08:11:53.002Z,101285.53
2022-09-22T08:14:22.164Z,101288.38
2022-09-22T08:16:51.272Z,101285.75
2022-09-22T08:19:19.240Z,101290.44
2022-09-22T08:21:49.697Z,101289.78
2022-09-22T08:24:22.325Z,101291.66
2022-09-22T08:26:52.253Z,101285.06
2022-09-22T08:29:20.750Z,101289.81
2022-09-22T08:31:51.309Z,101289.50
2022-09-22T08:34:20.100Z,101286.44
2022-09-22T08:36:48.630Z,101281.44
2022-09-22T08:39:19.126Z,101279.72
2022-09-22T08:41:59.361Z,101284.56
2022-09-22T08:44:29.618Z,101282.84
2022-09-22T08:47:01.677Z,101281.03
2022-09-22T08:49:53.550Z,101287.41
2022-09-22T08:52:32.520Z,101284.38
2022-09-22T08:55:03.202Z,101279.22
2022-09-22T08:57:56.172Z,101278.50
2022-09-22T09:00:25.714Z,101281.91
2022-09-22T09:03:10.616Z,101285.25
2022-09-22T09:06:04.325Z,101285.44
2022-09-22T09:09:05.705Z,101280.81
2022-09-22T09:12:01.214Z,101275.44
2022-09-22T09:14:52.033Z,101281.19
2022-09-22T09:17:24.668Z,101279.91
2022-09-22T09:19:58.102Z,101283.22
2022-09-22T09:22:32.017Z,101281.94
2022-09-22T09:27:57.092Z,101275.50
2022-09-22T09:30:25.377Z,101267.72
2022-09-22T09:32:59.091Z,101277.91
2022-09-22T09:35:41.423Z,101271.69
2022-09-22T09:38:14.556Z,101268.72
2022-09-22T09:40:42.957Z,101270.84
2022-09-22T09:43:12.251Z,101265.53
2022-09-22T09:45:51.293Z,101264.97
2022-09-22T09:48:30.634Z,101261.00
2022-09-22T09:51:03.547Z,101268.22
2022-09-22T09:53:40.469Z,101264.84
2022-09-22T09:56:22.410Z,101259.19
2022-09-22T09:59:16.783Z,101259.53
2022-09-22T10:01:47.139Z,101257.19
2022-09-22T10:04:20.425Z,101257.84
2022-09-22T10:06:49.392Z,101256.72
2022-09-22T10:09:28.635Z,101253.66
2022-09-22T10:12:00.873Z,101244.50
2022-09-22T10:14:33.603Z,101244.72
2022-09-22T10:17:03.840Z,101239.91
2022-09-22T10:19:34.444Z,101241.75
2022-09-22T10:22:24.786Z,101232.41
2022-09-22T10:24:58.178Z,101237.16
2022-09-22T10:27:28.307Z,101229.50
2022-09-22T10:30:22.765Z,101230.94
2022-09-22T10:33:14.856Z,101222.06
2022-09-22T10:35:44.930Z,101230.25
2022-09-22T10:38:19.752Z,101223.41
2022-09-22T10:40:51.334Z,101219.84
2022-09-22T10:43:36.973Z,101208.16
2022-09-22T10:46:33.820Z,101216.50
2022-09-22T10:49:10.795Z,101221.03
2022-09-22T10:51:54.953Z,101220.97
2022-09-22T10:55:01.954Z,101210.16
2022-09-22T10:57:51.546Z,101215.97
2022-09-22T11:00:21.708Z,101206.81
2022-09-22T11:03:29.833Z,101207.41
2022-09-22T11:06:30.303Z,101206.19
2022-09-22T11:09:24.417Z,101203.56
2022-09-22T11:12:20.146Z,101194.84
2022-09-22T11:15:25.729Z,101196.19
2022-09-22T11:18:14.398Z,101199.84
2022-09-22T11:20:46.076Z,101199.75
2022-09-22T11:23:36.855Z,101186.91
2022-09-22T11:26:19.987Z,101183.81
2022-09-22T11:28:58.934Z,101179.84
2022-09-22T11:31:42.326Z,101174.66
2022-09-22T11:34:33.487Z,101167.06
2022-09-22T11:37:26.434Z,101165.53
2022-09-22T11:40:17.747Z,101164.88
2022-09-22T11:42:59.418Z,101163.78
2022-09-22T11:45:44.771Z,101160.56
2022-09-22T11:48:30.480Z,101160.03
2022-09-22T11:51:21.926Z,101155.13
2022-09-22T11:54:05.226Z,101155.59
2022-09-22T11:56:39.461Z,101150.84
2022-09-22T11:59:27.018Z,101141.16
2022-09-22T12:01:57.963Z,101145.22
2022-09-22T12:04:34.271Z,101141.25
2022-09-22T12:07:03.941Z,101121.97
2022-09-22T12:09:38.833Z,101123.78
2022-09-22T12:12:12.709Z,101123.09
2022-09-22T12:14:41.273Z,101131.19
2022-09-22T12:17:21.457Z,101118.78
2022-09-22T12:20:00.711Z,101121.19
2022-09-22T12:22:33.767Z,101112.38
2022-09-22T12:25:03.323Z,101110.56
2022-09-22T12:27:32.626Z,101106.69
2022-09-22T12:30:03.008Z,101118.50
2022-09-22T12:32:37.092Z,101103.31
2022-09-22T12:35:06.598Z,101111.94
2022-09-22T12:37:37.080Z,101109.66
2022-09-22T12:40:24.278Z,101109.28
2022-09-22T12:42:54.441Z,101098.09
2022-09-22T12:45:30.560Z,101101.13
2022-09-22T12:48:00.869Z,101092.69
2022-09-22T12:50:35.917Z,101091.06
2022-09-22T12:53:11.127Z,101089.97
2022-09-22T12:55:40.691Z,101094.16
2022-09-22T12:58:44.467Z,101084.16
2022-09-22T13:01:35.016Z,101080.94
2022-09-22T13:04:12.949Z,101078.91
2022-09-22T13:06:56.071Z,101075.28
2022-09-22T13:09:26.974Z,101072.53
2022-09-22T13:12:30.874Z,101064.84
2022-09-22T13:15:24.383Z,101060.28
2022-09-22T13:17:52.543Z,101068.84
2022-09-22T13:20:24.347Z,101067.56
2022-09-22T13:22:55.205Z,101063.81
2022-09-22T13:25:26.406Z,101059.00
2022-09-22T13:28:14.378Z,101061.00
2022-09-22T13:30:43.978Z,101057.97
2022-09-22T13:33:23.918Z,101060.66
2022-09-22T13:35:57.017Z,101057.78
2022-09-22T13:38:25.121Z,101055.06
2022-09-22T13:40:53.626Z,101061.81
2022-09-22T13:43:29.243Z,101053.56
2022-09-22T13:45:59.712Z,101048.22
2022-09-22T13:48:31.203Z,101045.03
2022-09-22T13:51:03.447Z,101039.19
2022-09-22T13:53:32.161Z,101039.25
2022-09-22T13:56:00.694Z,101036.97
2022-09-22T13:58:37.134Z,101030.69
2022-09-22T14:01:15.183Z,101026.19
2022-09-22T14:03:44.362Z,101013.16
2022-09-22T14:06:15.037Z,101013.78
2022-09-22T14:08:44.815Z,101010.63
2022-09-22T14:11:16.145Z,101016.44
2022-09-22T14:13:58.286Z,101011.28
2022-09-22T14:16:31.880Z,101011.16
2022-09-22T14:19:04.679Z,101008.84
2022-09-22T14:21:33.532Z,101002.13
2022-09-22T14:24:02.312Z,101009.81
2022-09-22T14:26:36.017Z,101002.03
2022-09-22T14:29:16.972Z,100993.59
2022-09-22T14:31:48.089Z,100994.31
2022-09-22T14:34:24.637Z,100991.59
2022-09-22T14:36:54.992Z,100992.50
2022-09-22T14:39:31.815Z,100991.50
2022-09-22T14:42:08.879Z,100976.63
2022-09-22T14:44:49.517Z,100980.38
2022-09-22T14:47:25.823Z,100975.44
2022-09-22T14:50:12.483Z,100974.22
2022-09-22T14:52:43.356Z,100974.50
2022-09-22T14:55:17.878Z,100972.28
2022-09-22T14:57:49.731Z,100970.47
2022-09-22T15:00:37.544Z,100970.31
2022-09-22T15:03:16.399Z,100965.44
2022-09-22T15:05:45.895Z,100965.75
2022-09-22T15:08:15.589Z,100954.88
2022-09-22T15:10:53.054Z,100957.75
2022-09-22T15:13:29.540Z,100958.66
2022-09-22T15:15:59.406Z,100957.13
2022-09-22T15:18:30.747Z,100959.84
2022-09-22T15:21:03.489Z,100958.28
2022-09-22T15:23:35.583Z,100960.09
2022-09-22T15:26:04.955Z,100952.75
2022-09-22T15:28:38.028Z,100954.44
2022-09-22T15:31:07.816Z,100951.22
2022-09-22T15:33:36.021Z,100942.78
2022-09-22T15:36:10.962Z,100945.63
2022-09-22T15:38:39.742Z,100948.16
2022-09-22T15:41:12.068Z,100949.88
2022-09-22T15:43:41.251Z,100933.84
2022-09-22T15:46:28.477Z,100937.41
2022-09-22T15:49:01.066Z,100942.13
2022-09-22T15:51:30.390Z,100944.75
2022-09-22T15:53:58.410Z,100942.09
2022-09-22T15:56:29.506Z,100944.84
2022-09-22T15:59:00.819Z,100942.38
2022-09-22T16:01:30.433Z,100934.84
2022-09-22T16:04:00.106Z,100927.19
2022-09-22T16:06:28.655Z,100927.53
2022-09-22T16:08:58.335Z,100929.50
2022-09-22T16:11:29.566Z,100925.16
2022-09-22T16:14:00.937Z,100927.88
2022-09-22T16:16:31.422Z,100916.25
2022-09-22T16:18:59.889Z,100912.13
2022-09-22T16:21:30.218Z,100913.47
2022-09-22T16:24:03.913Z,100917.66
2022-09-22T16:26:33.349Z,100914.44
2022-09-22T16:29:01.775Z,100914.59
2022-09-22T16:31:31.554Z,100905.75
2022-09-22T16:34:01.693Z,100914.84
2022-09-22T16:36:31.067Z,100916.66
2022-09-22T16:38:59.446Z,100915.94
2022-09-22T16:41:29.271Z,100920.34
2022-09-22T16:43:58.155Z,100917.09
2022-09-22T16:46:27.891Z,100913.56
2022-09-22T16:49:00.194Z,100915.31
2022-09-22T16:51:28.907Z,100911.34
2022-09-22T16:53:57.519Z,100916.03
2022-09-22T16:56:27.690Z,100915.28
2022-09-22T16:58:56.356Z,100914.53
2022-09-22T17:01:25.033Z,100916.84
2022-09-22T17:03:53.740Z,100915.19
2022-09-22T17:06:25.247Z,100915.75
2022-09-22T17:08:54.929Z,100917.16
2022-09-22T17:11:24.538Z,100915.75
2022-09-22T17:13:52.744Z,100921.47
2022-09-22T17:16:24.444Z,100916.19
2022-09-22T17:18:53.475Z,100925.72
2022-09-22T17:21:23.768Z,100928.09
2022-09-22T17:23:54.794Z,100920.19
2022-09-22T17:26:22.742Z,100929.16
2022-09-22T17:28:52.610Z,100920.44
2022-09-22T17:31:23.455Z,100919.53
2022-09-22T17:33:52.549Z,100921.66
2022-09-22T17:36:25.453Z,100922.53
2022-09-22T17:38:55.686Z,100916.84
2022-09-22T17:41:25.540Z,100917.28
2022-09-22T17:43:56.675Z,100923.09
2022-09-22T17:46:26.549Z,100930.72
2022-09-22T17:49:12.548Z,100924.66
2022-09-22T17:52:00.814Z,100924.38
2022-09-22T17:54:48.298Z,100928.13
2022-09-22T17:57:17.816Z,100918.34
2022-09-22T17:59:47.139Z,100916.72
2022-09-22T18:02:17.410Z,100916.19
2022-09-22T18:04:46.256Z,100914.03
2022-09-22T18:07:17.765Z,100915.91
2022-09-22T18:09:48.804Z,100916.69
2022-09-22T18:12:21.078Z,100913.78
2022-09-22T18:14:51.984Z,100924.53
2022-09-22T18:17:21.922Z,100927.53
2022-09-22T18:19:50.124Z,100918.66
2022-09-22T18:22:21.200Z,100922.91
2022-09-22T18:24:50.451Z,100924.03
2022-09-22T18:27:19.519Z,100920.50
2022-09-22T18:29:49.908Z,100920.69
2022-09-22T18:32:20.055Z,100914.41
2022-09-22T18:34:51.101Z,100918.47
2022-09-22T18:37:20.906Z,100924.94
2022-09-22T18:39:50.363Z,100914.19
2022-09-22T18:42:19.389Z,100926.06
2022-09-22T18:44:47.869Z,100918.78
2022-09-22T18:47:18.739Z,100929.66
2022-09-22T18:49:48.141Z,100917.94
2022-09-22T18:52:18.008Z,100929.94
2022-09-22T18:54:47.426Z,100933.63
2022-09-22T18:57:15.557Z,100931.00
2022-09-22T18:59:43.577Z,100929.53
2022-09-22T19:02:12.282Z,100928.41
2022-09-22T19:04:40.613Z,100927.81
2022-09-22T19:07:26.993Z,100930.22
2022-09-22T19:09:56.474Z,100939.06
2022-09-22T19:12:24.437Z,100941.81
2022-09-22T19:14:54.410Z,100943.78
2022-09-22T19:17:24.353Z,100943.53
2022-09-22T19:19:52.578Z,100941.09
2022-09-22T19:22:23.174Z,100946.94
2022-09-22T19:24:52.400Z,100943.72
2022-09-22T19:27:22.590Z,100940.31
2022-09-22T19:29:51.724Z,100935.47
2022-09-22T19:32:19.650Z,100935.41
2022-09-22T19:34:47.561Z,100935.56
2022-09-22T19:37:15.538Z,100927.97
2022-09-22T19:39:43.943Z,100928.97
2022-09-22T19:42:11.928Z,100928.19
2022-09-22T19:44:41.485Z,100927.03
2022-09-22T19:47:09.421Z,100926.09
2022-09-22T19:49:37.434Z,100926.75
2022-09-22T19:52:05.425Z,100919.66
2022-09-22T19:54:33.469Z,100919.28
2022-09-22T19:57:01.531Z,100917.38
2022-09-22T19:59:29.606Z,100923.47
2022-09-22T20:01:59.006Z,100916.56
2022-09-22T20:04:27.039Z,100913.41
2022-09-22T20:06:55.024Z,100914.59
2022-09-22T20:09:22.979Z,100919.88
2022-09-22T20:11:52.237Z,100913.53
2022-09-22T20:14:23.666Z,100924.38
2022-09-22T20:16:53.236Z,100917.16
2022-09-22T20:19:24.432Z,100911.63
2022-09-22T20:21:54.895Z,100919.06
2022-09-22T20:24:24.168Z,100915.88
2022-09-22T20:26:53.796Z,100919.19
2022-09-22T20:29:21.785Z,100914.78
2022-09-22T20:31:49.793Z,100916.94
2022-09-22T20:34:17.948Z,100916.31
2022-09-22T20:36:47.461Z,100915.13
2022-09-22T20:39:15.887Z,100913.97
2022-09-22T20:41:44.399Z,100909.91
2022-09-22T20:44:14.697Z,100905.13
2022-09-22T20:46:43.453Z,100896.94
2022-09-22T20:49:13.845Z,100897.50
2022-09-22T20:51:42.229Z,100891.41
2022-09-22T20:54:11.557Z,100893.13
2022-09-22T20:56:42.643Z,100891.81
2022-09-22T20:59:11.161Z,100884.19
2022-09-22T21:01:39.230Z,100887.38
2022-09-22T21:04:07.450Z,100877.56
2022-09-22T21:06:35.679Z,100885.19
2022-09-22T21:09:21.385Z,100870.41
2022-09-22T21:11:50.732Z,100876.69
2022-09-22T21:14:18.595Z,100873.06
2022-09-22T21:16:50.198Z,100873.47
2022-09-22T21:19:18.422Z,100869.94
2022-09-22T21:21:46.443Z,100871.91
2022-09-22T21:24:14.700Z,100880.88
2022-09-22T21:26:42.637Z,100877.53
2022-09-22T21:29:11.938Z,100864.34
2022-09-22T21:31:39.856Z,100868.19
2022-09-22T21:34:07.968Z,100868.94
2022-09-22T21:36:35.959Z,100864.56
2022-09-22T21:39:04.084Z,100857.25
2022-09-22T21:41:33.058Z,100856.38
2022-09-22T21:44:01.238Z,100854.75
2022-09-22T21:46:31.249Z,100862.97
2022-09-22T21:49:01.526Z,100859.59
2022-09-22T21:51:34.198Z,100858.13
2022-09-22T21:54:04.321Z,100850.47
2022-09-22T21:56:33.640Z,100853.53
2022-09-22T21:59:03.088Z,100844.69
2022-09-22T22:01:34.824Z,100836.88
2022-09-22T22:04:07.784Z,100839.09
2022-09-22T22:06:40.779Z,100837.81
2022-09-22T22:09:13.896Z,100830.66
2022-09-22T22:11:43.703Z,100833.72
2022-09-22T22:14:12.917Z,100837.31
2022-09-22T22:16:44.192Z,100831.16
2022-09-22T22:19:13.637Z,100835.44
2022-09-22T22:21:42.830Z,100841.56
2022-09-22T22:24:28.386Z,100845.50
2022-09-22T22:26:58.670Z,100842.56
2022-09-22T22:29:28.114Z,100834.50
2022-09-22T22:31:57.521Z,100832.41
2022-09-22T22:34:26.470Z,100831.56
2022-09-22T22:36:54.995Z,100840.75
2022-09-22T22:39:23.164Z,100829.78
2022-09-22T22:41:53.754Z,100835.94
2022-09-22T22:44:21.673Z,100827.53
2022-09-22T22:46:49.617Z,100831.16
2022-09-22T22:49:19.179Z,100834.78
2022-09-22T22:51:49.085Z,100832.53
2022-09-22T22:54:17.077Z,100832.22
2022-09-22T22:56:48.908Z,100834.69
2022-09-22T22:59:19.360Z,100837.34
2022-09-22T23:01:47.411Z,100829.28
2022-09-22T23:04:16.484Z,100834.16
2022-09-22T23:06:48.386Z,100837.03
2022-09-22T23:09:17.671Z,100841.16
2022-09-22T23:11:46.329Z,100835.19
2022-09-22T23:14:15.882Z,100830.31
2022-09-22T23:16:44.889Z,100828.59
2022-09-22T23:19:14.435Z,100821.16
2022-09-22T23:21:42.687Z,100830.28
2022-09-22T23:24:15.980Z,100822.63
2022-09-22T23:26:45.284Z,100824.19
2022-09-22T23:29:13.535Z,100823.03
2022-09-22T23:31:41.670Z,100823.03
2022-09-22T23:34:09.554Z,100823.34
2022-09-22T23:36:37.485Z,100816.63
2022-09-22T23:39:05.729Z,100814.84
2022-09-22T23:41:37.368Z,100818.66
2022-09-22T23:44:06.425Z,100816.50
2022-09-22T23:46:34.847Z,100814.06
2022-09-22T23:49:02.883Z,100809.38
2022-09-22T23:51:31.259Z,100814.13
2022-09-22T23:53:59.892Z,100811.19
2022-09-22T23:56:27.910Z,100808.19
2022-09-22T23:58:57.546Z,100811.69
